Time;durP1;ratioP1;P1;durP2;ratioP2;P2;SDS_P1;SDS_P2;PMS_P1;PMS_P2;Temp;Humidity;BMP_temperature;BMP_pressure;BME280_temperature;BME280_humidity;BME280_pressure;Samples;Min_cycle;Max_cycle;Signal;HPM_P1;HPM_P2
2021/08/09 00:01:58;;;;;;;7.50;4.68;;;9.20;99.90;;;;;;5022050;28;20469;-86
2021/08/09 00:04:25;;;;;;;6.85;4.15;;;9.30;99.90;;;;;;5021287;28;20474;-86
2021/08/09 00:06:52;;;;;;;8.63;4.15;;;9.20;99.90;;;;;;5020362;28;20084;-86
2021/08/09 00:09:19;;;;;;;8.45;3.58;;;9.20;99.90;;;;;;5021089;28;20045;-86
2021/08/09 00:11:46;;;;;;;6.90;4.85;;;9.10;99.90;;;;;;5020579;28;20585;-86
2021/08/09 00:14:12;;;;;;;4.68;3.83;;;9.10;99.90;;;;;;5020775;28;20073;-86
2021/08/09 00:16:40;;;;;;;5.47;4.18;;;9.10;99.90;;;;;;5021206;28;20069;-86
2021/08/09 00:19:07;;;;;;;6.72;4.53;;;9.10;99.90;;;;;;5039237;28;20050;-86
2021/08/09 00:21:33;;;;;;;11.05;4.47;;;9.20;99.90;;;;;;5021479;28;20077;-86
2021/08/09 00:24:01;;;;;;;7.07;4.78;;;9.40;99.90;;;;;;5021355;28;20128;-86
2021/08/09 00:26:29;;;;;;;5.97;4.30;;;9.50;99.90;;;;;;5020045;28;20483;-86
2021/08/09 00:28:57;;;;;;;4.57;4.15;;;9.60;99.90;;;;;;5021693;28;20057;-86
2021/08/09 00:31:23;;;;;;;7.15;4.07;;;9.70;99.90;;;;;;5020972;28;20551;-85
2021/08/09 00:33:50;;;;;;;5.57;4.35;;;9.80;99.90;;;;;;5020387;28;20403;-86
2021/08/09 00:36:17;;;;;;;3.90;3.40;;;9.80;99.90;;;;;;5019541;28;20075;-87
2021/08/09 00:38:44;;;;;;;4.45;3.60;;;9.90;99.90;;;;;;5019876;28;20128;-86
2021/08/09 00:41:11;;;;;;;5.90;3.38;;;9.90;99.90;;;;;;5019722;28;20077;-86
2021/08/09 00:43:38;;;;;;;5.60;3.22;;;9.90;99.90;;;;;;5019346;28;20136;-86
2021/08/09 00:46:05;;;;;;;5.47;3.00;;;9.90;99.90;;;;;;5019336;28;20080;-86
2021/08/09 00:48:35;;;;;;;5.47;2.97;;;10.00;99.90;;;;;;5019546;28;20072;-86
2021/08/09 00:51:03;;;;;;;4.22;3.10;;;10.00;99.90;;;;;;5019362;28;20119;-86
2021/08/09 00:53:31;;;;;;;4.03;3.13;;;9.90;99.90;;;;;;5020690;28;20132;-87
2021/08/09 00:55:57;;;;;;;5.80;3.03;;;9.90;99.90;;;;;;5020873;28;20077;-86
2021/08/09 00:58:24;;;;;;;3.78;3.33;;;9.80;99.90;;;;;;5021945;28;20561;-86
2021/08/09 01:00:51;;;;;;;5.95;3.10;;;9.80;99.90;;;;;;5021068;28;20455;-86
2021/08/09 01:03:18;;;;;;;5.10;3.30;;;9.70;99.90;;;;;;5022526;28;20049;-86
2021/08/09 01:05:48;;;;;;;6.35;3.42;;;9.80;99.90;;;;;;5040139;28;20089;-86
2021/08/09 01:08:30;;;;;;;3.63;3.35;;;9.70;99.90;;;;;;5022127;28;20045;-86
2021/08/09 01:11:15;;;;;;;4.88;3.08;;;9.70;99.90;;;;;;5022915;28;20481;-85
2021/08/09 01:14:01;;;;;;;3.25;3.05;;;9.70;99.90;;;;;;5023242;28;20085;-86
2021/08/09 01:16:33;;;;;;;3.47;3.17;;;9.70;99.90;;;;;;5023324;28;20053;-85
2021/08/09 01:19:05;;;;;;;3.95;3.22;;;9.70;99.90;;;;;;5024815;28;20054;-86
2021/08/09 01:21:34;;;;;;;4.65;3.22;;;9.60;99.90;;;;;;5025016;28;20140;-86
2021/08/09 01:24:20;;;;;;;5.90;3.10;;;9.60;99.90;;;;;;5025520;28;20088;-87
2021/08/09 01:26:53;;;;;;;5.07;3.33;;;9.60;99.90;;;;;;5024529;28;20104;-86
2021/08/09 01:29:34;;;;;;;3.55;3.17;;;9.60;99.90;;;;;;5025652;28;20080;-87
2021/08/09 01:32:01;;;;;;;3.65;3.08;;;9.60;99.90;;;;;;5024930;28;20057;-86
2021/08/09 01:34:29;;;;;;;4.43;3.17;;;9.70;99.90;;;;;;5032292;28;20115;-86
2021/08/09 01:36:58;;;;;;;6.78;3.58;;;9.70;99.90;;;;;;5029989;28;20049;-86
2021/08/09 01:39:25;;;;;;;5.88;3.10;;;9.70;99.90;;;;;;5029931;28;20049;-86
2021/08/09 01:41:52;;;;;;;3.60;2.92;;;9.60;99.90;;;;;;5040107;28;20514;-86
2021/08/09 01:44:20;;;;;;;7.45;2.90;;;9.60;99.90;;;;;;5023477;28;20117;-87
2021/08/09 01:46:47;;;;;;;3.90;2.92;;;9.60;99.90;;;;;;5022410;28;20136;-87
2021/08/09 01:49:15;;;;;;;6.32;3.10;;;9.60;99.90;;;;;;5040654;28;20557;-86
2021/08/09 01:51:43;;;;;;;8.25;3.55;;;9.60;99.90;;;;;;5022187;28;20084;-86
2021/08/09 01:54:10;;;;;;;3.55;3.25;;;9.60;99.90;;;;;;5053727;28;20411;-87
2021/08/09 01:56:39;;;;;;;3.70;2.97;;;9.60;99.90;;;;;;5022233;28;20073;-87
2021/08/09 01:59:06;;;;;;;6.25;2.65;;;9.60;99.90;;;;;;5020635;28;20083;-86
2021/08/09 02:01:33;;;;;;;2.97;2.78;;;9.60;99.90;;;;;;5020768;28;20076;-86
2021/08/09 02:04:00;;;;;;;6.28;3.42;;;9.70;99.90;;;;;;5020892;28;20406;-87
2021/08/09 02:06:27;;;;;;;5.65;3.00;;;9.70;99.90;;;;;;5022977;28;20518;-86
2021/08/09 02:08:53;;;;;;;6.20;3.45;;;9.70;99.90;;;;;;5024934;28;20056;-86
2021/08/09 02:11:30;;;;;;;3.40;3.08;;;9.70;99.90;;;;;;5035380;28;20101;-87
2021/08/09 02:14:05;;;;;;;4.03;3.10;;;9.70;99.90;;;;;;5023548;28;20064;-86
2021/08/09 02:16:42;;;;;;;3.42;2.78;;;9.70;99.90;;;;;;5019948;28;20049;-86
2021/08/09 02:19:18;;;;;;;5.57;3.20;;;9.70;99.90;;;;;;5023360;28;20053;-86
2021/08/09 02:21:58;;;;;;;7.75;2.95;;;9.80;99.90;;;;;;5051608;28;20060;-86
2021/08/09 02:24:32;;;;;;;7.15;3.08;;;9.70;99.90;;;;;;5029554;28;20502;-86
2021/08/09 02:27:10;;;;;;;6.05;3.17;;;9.70;99.90;;;;;;5017708;28;20120;-86
2021/08/09 02:29:40;;;;;;;5.85;3.80;;;9.70;99.90;;;;;;5018558;28;20523;-86
2021/08/09 02:32:08;;;;;;;6.55;3.40;;;9.70;99.90;;;;;;5018417;28;20085;-86
2021/08/09 02:34:37;;;;;;;4.45;3.45;;;9.70;99.90;;;;;;5018565;28;20232;-86
2021/08/09 02:37:05;;;;;;;8.27;3.20;;;9.70;99.90;;;;;;5017657;28;20045;-87
2021/08/09 02:39:33;;;;;;;5.00;3.20;;;9.70;99.90;;;;;;5036122;28;20089;-86
2021/08/09 02:42:01;;;;;;;5.18;3.28;;;9.70;99.90;;;;;;5017046;28;20049;-85
2021/08/09 02:44:28;;;;;;;3.33;3.05;;;9.70;99.90;;;;;;5017992;28;20081;-86
2021/08/09 02:46:57;;;;;;;5.35;3.30;;;9.70;99.90;;;;;;5017847;28;20080;-85
2021/08/09 02:49:25;;;;;;;4.28;2.80;;;9.70;99.90;;;;;;5018062;28;20478;-85
2021/08/09 02:51:52;;;;;;;4.88;3.03;;;9.70;99.90;;;;;;5017668;28;20132;-85
2021/08/09 02:54:20;;;;;;;4.68;3.30;;;9.80;99.90;;;;;;5017941;28;20081;-85
2021/08/09 02:56:47;;;;;;;3.30;3.10;;;9.80;99.90;;;;;;5017666;28;20160;-86
2021/08/09 02:59:14;;;;;;;4.50;2.80;;;9.80;99.90;;;;;;5017107;28;20045;-86
2021/08/09 03:01:42;;;;;;;6.28;3.30;;;9.80;99.90;;;;;;5035144;28;20561;-85
2021/08/09 03:04:15;;;;;;;3.10;2.60;;;9.80;99.90;;;;;;5018065;28;20053;-87
2021/08/09 03:06:42;;;;;;;8.93;3.77;;;9.90;99.90;;;;;;5019737;28;20137;-86
2021/08/09 03:09:09;;;;;;;6.65;3.85;;;9.90;99.90;;;;;;5022109;28;20315;-86
2021/08/09 03:11:39;;;;;;;4.28;3.25;;;9.90;99.90;;;;;;5022526;28;20498;-86
2021/08/09 03:14:06;;;;;;;4.97;3.50;;;9.90;99.90;;;;;;5018896;28;20137;-85
2021/08/09 03:16:35;;;;;;;4.32;3.28;;;9.90;99.90;;;;;;5019439;28;20046;-85
2021/08/09 03:19:02;;;;;;;3.60;2.95;;;10.00;99.90;;;;;;5051902;28;20102;-85
2021/08/09 03:21:29;;;;;;;3.28;2.90;;;10.00;99.90;;;;;;5019591;28;20474;-86
2021/08/09 03:23:56;;;;;;;3.00;2.80;;;10.00;99.90;;;;;;5020583;28;20046;-85
2021/08/09 03:26:22;;;;;;;3.03;2.80;;;10.00;99.90;;;;;;5020105;28;20125;-86
2021/08/09 03:28:49;;;;;;;7.07;3.08;;;9.90;99.90;;;;;;5022144;28;20081;-85
2021/08/09 03:31:16;;;;;;;4.50;3.03;;;9.90;99.90;;;;;;5021192;28;20140;-86
2021/08/09 03:33:43;;;;;;;4.97;2.83;;;9.90;99.90;;;;;;5021091;28;20488;-86
2021/08/09 03:36:09;;;;;;;3.92;2.97;;;9.90;99.90;;;;;;5021386;28;20084;-86
2021/08/09 03:38:36;;;;;;;4.60;2.72;;;9.90;99.90;;;;;;5020035;28;20129;-86
2021/08/09 03:41:03;;;;;;;3.40;2.70;;;9.90;99.90;;;;;;5020719;28;20053;-86
2021/08/09 03:43:29;;;;;;;3.97;3.00;;;9.90;99.90;;;;;;5020668;28;20106;-86
2021/08/09 03:45:56;;;;;;;3.25;2.90;;;9.90;99.90;;;;;;5021148;28;20507;-86
2021/08/09 03:48:23;;;;;;;4.07;2.90;;;9.90;99.90;;;;;;5021565;28;20419;-87
2021/08/09 03:50:50;;;;;;;5.60;3.05;;;9.90;99.90;;;;;;5020353;28;20146;-87
2021/08/09 03:53:16;;;;;;;3.95;2.80;;;9.80;99.90;;;;;;5022362;28;20071;-86
2021/08/09 03:55:43;;;;;;;3.35;2.85;;;9.90;99.90;;;;;;5021458;28;20077;-86
2021/08/09 03:58:10;;;;;;;4.35;3.00;;;9.80;99.90;;;;;;5025102;28;20084;-86
2021/08/09 04:00:37;;;;;;;5.47;3.30;;;9.80;99.90;;;;;;5029338;28;20113;-86
2021/08/09 04:03:04;;;;;;;5.88;2.85;;;9.90;99.90;;;;;;5032229;28;20053;-86
2021/08/09 04:05:31;;;;;;;3.58;2.70;;;9.90;99.90;;;;;;5021296;28;20093;-86
2021/08/09 04:07:58;;;;;;;3.63;3.10;;;9.90;99.90;;;;;;5017678;28;20162;-86
2021/08/09 04:10:25;;;;;;;5.07;2.83;;;9.90;99.90;;;;;;5018737;28;20136;-86
2021/08/09 04:12:51;;;;;;;3.88;3.00;;;10.00;99.90;;;;;;5018240;28;20092;-86
2021/08/09 04:15:19;;;;;;;4.50;3.20;;;10.00;99.90;;;;;;5018432;28;20050;-87
2021/08/09 04:17:46;;;;;;;7.00;3.53;;;10.00;99.90;;;;;;5017757;28;20137;-86
2021/08/09 04:20:13;;;;;;;2.60;2.50;;;10.10;99.90;;;;;;5053191;28;20137;-86
2021/08/09 04:22:39;;;;;;;4.05;3.05;;;10.10;99.90;;;;;;5018959;28;20133;-86
2021/08/09 04:25:07;;;;;;;2.88;2.58;;;10.20;99.90;;;;;;5019813;28;20109;-87
2021/08/09 04:27:33;;;;;;;4.13;2.80;;;10.20;99.90;;;;;;5019798;28;20046;-86
2021/08/09 04:30:00;;;;;;;2.63;2.42;;;10.20;99.90;;;;;;5021017;28;20400;-87
2021/08/09 04:36:18;;;;;;;6.55;2.97;;;10.30;99.90;;;;;;5091290;23;20031;-92
2021/08/09 04:38:45;;;;;;;5.13;2.80;;;10.30;99.90;;;;;;5058404;28;20055;-91
2021/08/09 04:41:12;;;;;;;4.68;2.92;;;10.30;99.90;;;;;;5058652;28;20048;-92
2021/08/09 04:43:41;;;;;;;4.53;2.90;;;10.30;99.90;;;;;;5058448;28;20052;-91
2021/08/09 04:46:08;;;;;;;4.30;2.90;;;10.30;99.90;;;;;;5058412;28;20068;-91
2021/08/09 04:48:35;;;;;;;8.82;3.20;;;10.40;99.90;;;;;;5058213;28;20049;-90
2021/08/09 04:51:02;;;;;;;3.40;2.72;;;10.50;99.90;;;;;;5058049;28;20110;-91
2021/08/09 04:53:29;;;;;;;4.47;2.85;;;10.50;99.90;;;;;;5059951;28;20478;-91
2021/08/09 04:55:56;;;;;;;7.53;2.78;;;10.50;99.90;;;;;;5078225;28;20144;-91
2021/08/09 04:58:23;;;;;;;3.15;2.95;;;10.60;99.90;;;;;;5077297;28;20071;-91
2021/08/09 05:00:51;;;;;;;11.50;3.50;;;10.70;99.90;;;;;;5077633;28;20127;-90
2021/08/09 05:03:20;;;;;;;7.47;3.30;;;10.70;99.90;;;;;;5078123;28;20059;-92
2021/08/09 05:05:47;;;;;;;3.28;2.67;;;10.80;99.90;;;;;;5077256;28;20131;-90
2021/08/09 05:08:14;;;;;;;4.60;2.78;;;10.80;99.90;;;;;;5077518;28;20059;-90
2021/08/09 05:10:40;;;;;;;5.80;2.45;;;10.90;99.90;;;;;;5077492;28;20079;-91
2021/08/09 05:13:07;;;;;;;5.45;2.58;;;11.00;99.90;;;;;;5077530;28;20075;-90
2021/08/09 05:15:36;;;;;;;8.40;2.55;;;11.00;99.90;;;;;;5077425;28;20048;-90
2021/08/09 05:18:03;;;;;;;8.25;3.08;;;11.10;99.90;;;;;;5077504;28;20062;-91
2021/08/09 05:20:30;;;;;;;3.15;2.42;;;11.10;99.90;;;;;;5076978;28;20072;-90
2021/08/09 05:22:57;;;;;;;5.65;2.10;;;11.20;99.90;;;;;;5068249;28;20045;-90
2021/08/09 05:25:25;;;;;;;2.70;2.53;;;11.30;99.90;;;;;;5068030;28;20045;-90
2021/08/09 05:27:52;;;;;;;11.70;3.38;;;11.40;99.90;;;;;;5067222;28;20098;-90
2021/08/09 05:30:20;;;;;;;4.05;2.50;;;11.50;99.90;;;;;;5070407;28;20051;-90
2021/08/09 05:32:47;;;;;;;5.32;2.30;;;11.60;99.90;;;;;;5057243;28;20048;-91
2021/08/09 05:35:14;;;;;;;2.83;2.20;;;11.70;99.90;;;;;;5056471;28;20056;-91
2021/08/09 05:37:40;;;;;;;5.20;2.72;;;11.70;99.90;;;;;;5056068;28;20131;-90
2021/08/09 05:40:08;;;;;;;4.00;2.22;;;11.80;99.90;;;;;;5056460;28;20139;-89
2021/08/09 05:42:35;;;;;;;6.78;2.45;;;12.00;99.90;;;;;;5056808;28;20475;-91
2021/08/09 05:45:03;;;;;;;3.15;2.47;;;12.10;99.90;;;;;;5056318;28;20415;-90
2021/08/09 05:47:30;;;;;;;3.67;2.22;;;12.20;99.90;;;;;;5056201;28;20449;-90
2021/08/09 05:49:56;;;;;;;17.05;3.10;;;12.30;99.90;;;;;;5056365;28;20464;-90
2021/08/09 05:52:25;;;;;;;11.52;2.85;;;12.40;99.90;;;;;;5056303;28;20052;-91
2021/08/09 05:54:53;;;;;;;6.90;2.40;;;12.40;99.90;;;;;;5056184;28;20139;-90
2021/08/09 05:57:20;;;;;;;2.70;1.80;;;12.50;99.90;;;;;;5056396;28;20099;-90
2021/08/09 05:59:47;;;;;;;4.05;2.65;;;12.60;99.90;;;;;;5056611;28;20548;-90
2021/08/09 06:02:14;;;;;;;8.40;3.13;;;12.70;99.90;;;;;;5056420;28;20059;-90
2021/08/09 06:04:41;;;;;;;3.00;2.30;;;12.80;99.90;;;;;;5056494;28;20106;-90
2021/08/09 06:07:16;;;;;;;1.92;1.70;;;13.00;99.90;;;;;;5056367;28;20057;-90
2021/08/09 06:09:44;;;;;;;3.33;1.70;;;13.20;99.90;;;;;;5056341;28;20478;-91
2021/08/09 06:12:12;;;;;;;4.13;1.42;;;13.40;99.90;;;;;;5056207;28;20048;-90
2021/08/09 06:14:39;;;;;;;2.63;2.00;;;13.60;99.90;;;;;;5056911;28;20064;-91
2021/08/09 06:17:06;;;;;;;5.50;1.58;;;13.80;99.90;;;;;;5056004;28;20128;-91
2021/08/09 06:19:35;;;;;;;7.35;2.35;;;14.10;99.90;;;;;;5056542;28;20049;-91
2021/08/09 06:22:03;;;;;;;6.45;2.08;;;14.40;99.90;;;;;;5055946;28;20052;-90
2021/08/09 06:24:30;;;;;;;5.72;1.60;;;14.70;99.90;;;;;;5056356;28;20052;-91
2021/08/09 06:26:57;;;;;;;2.75;1.45;;;15.00;99.90;;;;;;5056375;28;20048;-90
2021/08/09 06:29:24;;;;;;;3.05;1.58;;;15.20;99.90;;;;;;5056085;28;20151;-91
2021/08/09 06:31:51;;;;;;;4.40;1.30;;;15.80;99.90;;;;;;5056554;28;20403;-91
2021/08/09 06:34:17;;;;;;;7.80;2.53;;;16.50;99.90;;;;;;5056048;28;20473;-90
2021/08/09 06:36:45;;;;;;;9.13;3.03;;;16.80;99.90;;;;;;5055836;28;20056;-90
2021/08/09 06:39:14;;;;;;;29.55;22.60;;;16.90;99.90;;;;;;5056085;28;20041;-91
2021/08/09 06:41:41;;;;;;;18.35;12.68;;;17.20;99.90;;;;;;5061031;28;20052;-90
2021/08/09 06:44:08;;;;;;;11.32;9.50;;;17.70;99.90;;;;;;5062833;28;20400;-91
2021/08/09 06:46:34;;;;;;;7.63;4.18;;;18.90;99.90;;;;;;5062962;28;20062;-90
2021/08/09 06:49:01;;;;;;;10.93;3.53;;;20.00;99.90;;;;;;5062864;28;20578;-91
2021/08/09 06:51:28;;;;;;;9.65;7.03;;;20.80;99.90;;;;;;5062762;28;20052;-91
2021/08/09 06:53:55;;;;;;;13.20;6.97;;;22.00;99.90;;;;;;5062773;28;20135;-90
2021/08/09 06:56:21;;;;;;;6.97;3.42;;;22.40;99.90;;;;;;5062421;28;20127;-91
2021/08/09 06:58:48;;;;;;;4.20;2.30;;;22.30;99.90;;;;;;5062651;28;20075;-91
2021/08/09 07:01:15;;;;;;;5.88;2.42;;;22.00;99.90;;;;;;5062529;28;20135;-90
2021/08/09 07:03:46;;;;;;;8.90;1.60;;;22.10;99.90;;;;;;5062236;28;20455;-90
2021/08/09 07:06:21;;;;;;;4.18;1.33;;;22.10;99.90;;;;;;5062484;28;20441;-91
2021/08/09 07:08:49;;;;;;;1.88;0.80;;;22.60;99.90;;;;;;5062687;28;20131;-91
2021/08/09 07:11:16;;;;;;;6.00;1.10;;;22.90;99.90;;;;;;5062630;28;20081;-91
2021/08/09 07:13:43;;;;;;;4.10;1.27;;;23.10;99.90;;;;;;5062516;28;20044;-91
2021/08/09 07:16:10;;;;;;;17.00;2.45;;;23.70;99.90;;;;;;5062543;28;20128;-89
2021/08/09 07:18:37;;;;;;;4.43;1.60;;;23.50;99.90;;;;;;5063028;28;20425;-90
2021/08/09 07:21:07;;;;;;;2.53;0.90;;;24.10;99.90;;;;;;5062822;28;20044;-90
2021/08/09 07:23:34;;;;;;;4.45;1.50;;;24.20;99.90;;;;;;5063132;28;20059;-89
2021/08/09 07:26:01;;;;;;;2.50;1.20;;;23.50;99.90;;;;;;5064640;28;20098;-91
2021/08/09 07:28:29;;;;;;;2.30;0.90;;;23.10;99.90;;;;;;5050047;28;20495;-90
2021/08/09 07:30:56;;;;;;;2.03;1.10;;;23.30;99.90;;;;;;5064267;28;20412;-91
2021/08/09 07:33:22;;;;;;;2.17;1.10;;;23.70;99.90;;;;;;5064918;28;20443;-89
2021/08/09 07:35:49;;;;;;;1.35;0.88;;;23.30;99.90;;;;;;5080522;28;20052;-92
2021/08/09 07:38:16;;;;;;;1.15;0.80;;;23.20;99.90;;;;;;5063340;28;20057;-92
2021/08/09 07:40:43;;;;;;;1.23;0.90;;;22.70;99.90;;;;;;5064560;28;20442;-89
2021/08/09 07:43:10;;;;;;;3.05;1.10;;;22.40;99.90;;;;;;5063706;28;20049;-90
2021/08/09 07:45:36;;;;;;;1.98;1.00;;;22.70;99.90;;;;;;5063189;28;20112;-90
2021/08/09 07:48:04;;;;;;;2.92;0.88;;;23.50;99.90;;;;;;5062601;28;20135;-92
2021/08/09 07:50:31;;;;;;;0.73;0.73;;;23.20;99.90;;;;;;5065037;28;20044;-90
2021/08/09 07:52:58;;;;;;;1.02;0.70;;;23.50;99.90;;;;;;5061774;28;20412;-91
2021/08/09 07:55:26;;;;;;;1.63;0.90;;;25.80;99.90;;;;;;5061556;28;20386;-90
2021/08/09 07:57:53;;;;;;;4.03;1.10;;;26.90;94.20;;;;;;5059046;28;20131;-92
2021/08/09 08:00:20;;;;;;;2.78;0.65;;;26.40;91.90;;;;;;5059187;28;20563;-93
2021/08/09 08:02:48;;;;;;;2.05;0.90;;;26.00;91.80;;;;;;5059480;28;20115;-90
2021/08/09 08:05:15;;;;;;;0.68;0.60;;;25.50;92.90;;;;;;5059055;28;20482;-89
2021/08/09 08:07:41;;;;;;;1.13;0.85;;;24.90;93.40;;;;;;5059141;28;20135;-89
2021/08/09 08:10:09;;;;;;;1.52;0.90;;;24.30;94.40;;;;;;5058801;28;20108;-89
2021/08/09 08:12:36;;;;;;;1.65;0.90;;;24.50;95.70;;;;;;5076685;28;20051;-90
2021/08/09 08:15:04;;;;;;;1.65;1.08;;;24.60;94.50;;;;;;5076295;28;20076;-91
2021/08/09 08:17:32;;;;;;;1.70;0.77;;;24.50;94.30;;;;;;5058684;28;20074;-90
2021/08/09 08:20:00;;;;;;;1.58;1.05;;;24.10;95.90;;;;;;5076158;28;20148;-93
2021/08/09 08:22:27;;;;;;;3.47;1.20;;;24.20;95.40;;;;;;5076411;28;20049;-89
2021/08/09 08:24:53;;;;;;;2.05;1.00;;;24.70;94.10;;;;;;5058478;28;20083;-90
2021/08/09 08:27:20;;;;;;;2.67;0.95;;;26.20;93.20;;;;;;5058822;28;20508;-90
2021/08/09 08:29:47;;;;;;;0.93;0.60;;;27.10;91.20;;;;;;5058577;28;20059;-89
2021/08/09 08:32:14;;;;;;;1.92;0.85;;;27.60;89.60;;;;;;5058598;28;20056;-89
2021/08/09 08:34:40;;;;;;;1.38;0.80;;;28.60;85.50;;;;;;5058679;28;20048;-91
2021/08/09 08:37:07;;;;;;;2.40;0.93;;;28.90;81.50;;;;;;5058160;28;20053;-88
2021/08/09 08:39:34;;;;;;;2.53;1.00;;;30.10;78.20;;;;;;5058541;28;20068;-89
2021/08/09 08:42:01;;;;;;;1.42;0.77;;;31.00;73.80;;;;;;5058474;28;20058;-91
2021/08/09 08:44:28;;;;;;;1.55;0.80;;;30.50;74.00;;;;;;5058444;28;20143;-91
2021/08/09 08:46:55;;;;;;;2.00;0.70;;;31.40;72.10;;;;;;5058247;28;20045;-90
2021/08/09 08:49:23;;;;;;;8.80;1.48;;;32.60;69.20;;;;;;5058725;28;20075;-90
2021/08/09 08:51:50;;;;;;;2.80;1.98;;;34.10;64.00;;;;;;5058291;28;20052;-90
2021/08/09 08:54:18;;;;;;;1.30;0.88;;;33.50;62.50;;;;;;5058100;28;20071;-93
2021/08/09 08:56:45;;;;;;;5.53;1.05;;;34.30;62.50;;;;;;5058172;28;20123;-89
2021/08/09 08:59:16;;;;;;;2.97;1.55;;;33.80;59.50;;;;;;5058951;28;20158;-90
2021/08/09 09:01:45;;;;;;;1.13;0.77;;;33.30;61.00;;;;;;5058116;28;20135;-93
2021/08/09 09:04:27;;;;;;;1.33;0.80;;;34.40;60.70;;;;;;5058050;28;20079;-93
2021/08/09 09:07:14;;;;;;;1.58;0.70;;;35.00;58.10;;;;;;5058133;28;20071;-88
2021/08/09 09:09:40;;;;;;;1.17;0.65;;;34.80;57.00;;;;;;5058158;28;20127;-89
2021/08/09 09:12:19;;;;;;;1.50;0.60;;;34.00;57.40;;;;;;5057897;28;20544;-90
2021/08/09 09:15:01;;;;;;;1.13;0.68;;;34.80;57.80;;;;;;5057962;28;20072;-90
2021/08/09 09:17:35;;;;;;;1.00;0.60;;;35.40;55.60;;;;;;5058113;28;20052;-90
2021/08/09 09:20:31;;;;;;;2.58;1.00;;;35.80;55.10;;;;;;5057989;28;20131;-89
2021/08/09 09:23:12;;;;;;;1.65;0.68;;;36.40;52.70;;;;;;5041640;28;20074;-90
2021/08/09 09:25:39;;;;;;;1.55;0.65;;;36.40;53.20;;;;;;5058195;28;20457;-89
2021/08/09 09:28:28;;;;;;;1.15;0.60;;;36.20;52.60;;;;;;5057565;28;20048;-89
2021/08/09 09:31:02;;;;;;;1.38;0.60;;;35.50;53.70;;;;;;5057455;28;20066;-91
2021/08/09 09:33:30;;;;;;;1.85;0.70;;;35.20;55.10;;;;;;5058211;28;20048;-94
2021/08/09 09:36:02;;;;;;;0.95;0.45;;;35.90;52.50;;;;;;5057596;28;20486;-91
2021/08/09 09:38:39;;;;;;;1.60;0.85;;;37.20;50.90;;;;;;5056749;28;20071;-91
2021/08/09 09:41:07;;;;;;;3.25;0.90;;;37.40;50.00;;;;;;5057507;28;20439;-92
2021/08/09 09:43:39;;;;;;;1.67;0.95;;;37.40;49.90;;;;;;5057222;28;20116;-91
2021/08/09 09:46:06;;;;;;;1.35;0.75;;;37.70;49.80;;;;;;5057101;28;20052;-90
2021/08/09 09:48:35;;;;;;;5.78;1.00;;;36.20;49.30;;;;;;5057335;28;20048;-88
2021/08/09 09:51:18;;;;;;;6.68;1.40;;;32.50;50.50;;;;;;5057020;28;20135;-90
2021/08/09 09:53:47;;;;;;;1.48;0.80;;;30.90;54.30;;;;;;5057068;28;20071;-89
2021/08/09 09:56:14;;;;;;;2.58;0.75;;;31.40;53.10;;;;;;5057355;28;20056;-92
2021/08/09 09:58:41;;;;;;;1.42;0.90;;;30.30;53.50;;;;;;5057082;28;20470;-93
2021/08/09 10:01:09;;;;;;;0.93;0.60;;;30.90;54.30;;;;;;5057937;28;20131;-90
2021/08/09 10:03:41;;;;;;;6.65;0.93;;;30.60;54.10;;;;;;5060734;28;20056;-90
2021/08/09 10:06:09;;;;;;;6.15;1.42;;;30.10;54.30;;;;;;5056311;28;20131;-86
2021/08/09 10:08:42;;;;;;;9.80;2.45;;;29.50;55.90;;;;;;5056279;28;20063;-90
2021/08/09 10:11:09;;;;;;;0.93;0.70;;;28.10;58.10;;;;;;5056458;28;20485;-89
2021/08/09 10:13:37;;;;;;;1.00;0.60;;;29.20;57.50;;;;;;5057069;28;20051;-91
2021/08/09 10:16:07;;;;;;;1.80;0.75;;;30.70;55.40;;;;;;5058068;28;20463;-88
2021/08/09 10:18:37;;;;;;;1.25;0.65;;;32.40;53.80;;;;;;5059559;28;20052;-90
2021/08/09 10:21:05;;;;;;;1.75;1.10;;;33.10;52.50;;;;;;5060083;28;20523;-90
2021/08/09 10:23:36;;;;;;;8.55;2.00;;;33.60;50.70;;;;;;5056515;28;20135;-87
2021/08/09 10:26:27;;;;;;;4.32;1.15;;;32.60;51.70;;;;;;5055936;28;20052;-88
2021/08/09 10:28:54;;;;;;;6.32;1.20;;;32.50;52.00;;;;;;5048312;28;20049;-90
2021/08/09 10:31:25;;;;;;;1.70;0.90;;;32.40;53.20;;;;;;5056346;28;20139;-90
2021/08/09 10:33:52;;;;;;;8.70;3.10;;;31.90;54.50;;;;;;5061205;28;20413;-90
2021/08/09 10:36:21;;;;;;;16.98;2.40;;;31.80;52.70;;;;;;5057998;28;20136;-86
2021/08/09 10:38:49;;;;;;;2.75;0.63;;;29.60;55.00;;;;;;5056149;28;20481;-90
2021/08/09 10:41:16;;;;;;;2.53;0.90;;;29.10;56.70;;;;;;5056228;28;20048;-90
2021/08/09 10:44:02;;;;;;;2.47;1.02;;;29.30;58.30;;;;;;5059777;28;20048;-88
2021/08/09 10:46:45;;;;;;;2.53;1.00;;;28.80;58.10;;;;;;5059043;28;20052;-87
2021/08/09 10:49:40;;;;;;;7.20;0.90;;;28.20;58.60;;;;;;5056436;28;20049;-87
2021/08/09 10:52:07;;;;;;;3.88;0.80;;;27.70;58.70;;;;;;5055684;28;20544;-87
2021/08/09 10:54:36;;;;;;;0.93;0.60;;;27.80;61.30;;;;;;5055883;28;20056;-88
2021/08/09 10:57:05;;;;;;;3.22;1.05;;;28.80;60.10;;;;;;5056028;28;20058;-91
2021/08/09 10:59:42;;;;;;;1.75;0.85;;;28.60;58.80;;;;;;5056257;28;20056;-90
2021/08/09 11:02:21;;;;;;;6.60;1.00;;;29.10;59.00;;;;;;5055999;28;20115;-90
2021/08/09 11:05:13;;;;;;;2.22;0.93;;;28.70;58.50;;;;;;5056082;28;20079;-90
2021/08/09 11:07:44;;;;;;;2.92;0.57;;;27.90;59.20;;;;;;5055746;28;20124;-92
2021/08/09 11:10:11;;;;;;;6.78;1.13;;;27.30;61.10;;;;;;5056450;28;20435;-88
2021/08/09 11:13:00;;;;;;;3.83;0.82;;;25.90;62.40;;;;;;5056225;28;20511;-89
2021/08/09 11:15:28;;;;;;;3.20;0.80;;;25.50;65.60;;;;;;5056039;28;20096;-90
2021/08/09 11:17:57;;;;;;;1.17;0.75;;;25.10;66.60;;;;;;5055438;28;20412;-90
2021/08/09 11:20:34;;;;;;;1.33;0.60;;;25.30;65.90;;;;;;5055282;28;20063;-87
2021/08/09 11:23:03;;;;;;;2.92;0.80;;;25.50;65.70;;;;;;5055135;28;20493;-89
2021/08/09 11:25:41;;;;;;;1.77;0.80;;;25.30;65.60;;;;;;5072788;28;20050;-88
2021/08/09 11:28:25;;;;;;;1.20;0.70;;;25.40;66.50;;;;;;5058397;28;20090;-90
2021/08/09 11:31:04;;;;;;;1.40;0.98;;;25.80;66.70;;;;;;5059054;28;20485;-88
2021/08/09 11:33:39;;;;;;;1.85;0.90;;;25.30;67.10;;;;;;5059011;28;20087;-90
2021/08/09 11:36:14;;;;;;;0.63;0.60;;;25.30;64.70;;;;;;5076414;28;20139;-90
2021/08/09 11:38:48;;;;;;;1.50;0.80;;;25.30;65.10;;;;;;5059974;28;20470;-86
2021/08/09 11:41:22;;;;;;;1.80;0.80;;;25.20;64.80;;;;;;5075507;28;20083;-87
2021/08/09 11:43:55;;;;;;;4.18;0.70;;;25.40;65.70;;;;;;5075233;28;20503;-88
2021/08/09 11:46:22;;;;;;;;;;;25.70;67.00;;;;;;5075550;28;20070;-89
2021/08/09 11:48:50;;;;;;;14.15;3.95;;;26.10;67.30;;;;;;5075995;28;20304;-94
2021/08/09 11:51:27;;;;;;;16.00;5.38;;;26.30;64.60;;;;;;5075552;28;20455;-88
2021/08/09 11:53:56;;;;;;;36.40;6.60;;;25.90;65.80;;;;;;5075524;28;20045;-88
2021/08/09 11:56:30;;;;;;;4.32;1.05;;;26.30;67.80;;;;;;5075017;28;20045;-89
2021/08/09 11:58:58;;;;;;;3.45;1.02;;;26.40;65.90;;;;;;5075370;28;20052;-89
2021/08/09 12:01:36;;;;;;;4.55;0.90;;;27.00;66.40;;;;;;5075470;28;20052;-90
2021/08/09 12:04:12;;;;;;;1.55;0.80;;;27.40;64.10;;;;;;5075000;28;20106;-90
2021/08/09 12:06:55;;;;;;;1.50;0.77;;;27.40;62.60;;;;;;5072797;28;20556;-93
2021/08/09 12:09:39;;;;;;;7.72;2.10;;;27.10;60.90;;;;;;5074900;28;20057;-88
2021/08/09 12:12:06;;;;;;;;;;;26.40;62.40;;;;;;5075389;28;20048;-88
2021/08/09 12:14:33;;;;;;;1.88;0.70;;;26.50;61.30;;;;;;5074889;28;20410;-90
2021/08/09 12:17:13;;;;;;;8.82;0.90;;;26.20;63.40;;;;;;5075061;28;20055;-87
2021/08/09 12:19:45;;;;;;;1.75;0.90;;;25.60;61.40;;;;;;5075192;28;20474;-87
2021/08/09 12:22:13;;;;;;;2.33;0.75;;;25.50;63.60;;;;;;5074991;28;20128;-87
2021/08/09 12:24:41;;;;;;;15.00;1.65;;;25.20;62.70;;;;;;5075383;28;20059;-88
2021/08/09 12:27:20;;;;;;;3.45;0.63;;;24.90;64.60;;;;;;5075108;28;20459;-88
2021/08/09 12:30:04;;;;;;;1.13;0.85;;;25.00;65.50;;;;;;5075183;28;20503;-88
2021/08/09 12:32:31;;;;;;;4.05;0.57;;;25.20;65.10;;;;;;5075534;28;20048;-90
2021/08/09 12:34:58;;;;;;;2.10;0.50;;;25.10;63.60;;;;;;5074884;28;20071;-93
2021/08/09 12:37:26;;;;;;;1.00;0.65;;;25.20;65.60;;;;;;5074665;28;20075;-90
2021/08/09 12:40:17;;;;;;;2.47;0.77;;;25.40;66.90;;;;;;5074997;28;20139;-89
2021/08/09 12:43:08;;;;;;;3.30;0.73;;;26.00;67.50;;;;;;5075841;28;20575;-88
2021/08/09 12:45:35;;;;;;;2.25;0.70;;;26.10;64.80;;;;;;5074376;28;20127;-89
2021/08/09 12:48:04;;;;;;;2.78;0.70;;;26.20;65.50;;;;;;5074439;28;20049;-89
2021/08/09 12:50:32;;;;;;;1.75;0.88;;;26.10;66.30;;;;;;5074087;28;20135;-88
2021/08/09 12:52:58;;;;;;;1.52;0.60;;;26.20;65.60;;;;;;5074312;28;20052;-86
2021/08/09 12:55:25;;;;;;;2.00;0.73;;;26.60;64.00;;;;;;5074470;28;20060;-91
2021/08/09 12:57:53;;;;;;;4.25;0.90;;;26.40;63.80;;;;;;5074366;28;20045;-88
2021/08/09 13:00:21;;;;;;;1.08;0.70;;;26.50;64.90;;;;;;5074067;28;20040;-90
2021/08/09 13:02:48;;;;;;;1.15;0.60;;;26.70;64.40;;;;;;5072937;28;20408;-88
2021/08/09 13:05:16;;;;;;;0.95;0.60;;;26.80;64.00;;;;;;5074115;28;20067;-90
2021/08/09 13:07:43;;;;;;;1.10;0.57;;;26.80;63.70;;;;;;5074872;28;20053;-89